Time;durP1;ratioP1;P1;durP2;ratioP2;P2;SDS_P1;SDS_P2;PMS_P1;PMS_P2;Temp;Humidity;BMP_temperature;BMP_pressure;BME280_temperature;BME280_humidity;BME280_pressure;Samples;Min_cycle;Max_cycle;Signal;HPM_P1;HPM_P2
2022/11/19 03:33:22;;;;;;;9.61;9.01;;;;;;;3.23;82.33;100644.00;439375;119;922661;-78
2022/11/19 03:34:34;;;;;;;8.99;8.49;;;;;;;3.34;82.53;100643.69;477234;110;946991;-77
2022/11/19 03:35:50;;;;;;;9.11;8.52;;;;;;;3.24;82.51;100643.00;465566;113;922671;-76
2022/11/19 03:36:56;;;;;;;9.63;8.98;;;;;;;3.25;82.56;100639.30;458433;114;922557;-77
2022/11/19 03:38:03;;;;;;;9.56;8.89;;;;;;;3.26;82.47;100640.96;457451;116;922958;-76
2022/11/19 03:39:09;;;;;;;9.58;8.98;;;;;;;3.28;82.39;100645.19;457417;116;923021;-77
2022/11/19 03:40:15;;;;;;;9.17;8.59;;;;;;;3.28;82.33;100634.41;457498;116;922573;-77
2022/11/19 03:41:19;;;;;;;9.66;9.00;;;;;;;3.30;82.31;100634.25;457501;114;922617;-76
2022/11/19 03:42:25;;;;;;;9.35;8.67;;;;;;;3.31;82.32;100633.22;457491;116;922801;-78
2022/11/19 03:43:31;;;;;;;9.74;9.01;;;;;;;3.32;82.30;100635.75;457499;116;922509;-77
2022/11/19 03:44:47;;;;;;;9.37;8.79;;;;;;;3.33;82.21;100633.91;457462;116;922642;-80
2022/11/19 03:45:51;;;;;;;8.82;8.25;;;;;;;3.35;82.19;100634.59;457496;116;922543;-79
2022/11/19 03:47:03;;;;;;;9.54;8.94;;;;;;;3.35;82.27;100638.14;457575;114;922533;-79
2022/11/19 03:48:06;;;;;;;8.99;8.44;;;;;;;3.38;82.20;100639.64;457462;115;922509;-80
2022/11/19 03:49:11;;;;;;;9.63;8.91;;;;;;;3.39;82.24;100644.02;457553;115;922974;-77
2022/11/19 03:50:36;;;;;;;9.72;8.97;;;;;;;3.40;82.33;100651.10;457440;116;922563;-79
2022/11/19 03:51:42;;;;;;;9.38;8.78;;;;;;;3.43;82.26;100645.36;456898;114;922663;-79
2022/11/19 03:52:45;;;;;;;10.07;9.39;;;;;;;3.45;82.20;100650.59;457261;115;922536;-79
2022/11/19 03:53:48;;;;;;;9.63;8.94;;;;;;;3.47;82.24;100643.20;457624;116;922457;-79
2022/11/19 03:54:52;;;;;;;9.03;8.43;;;;;;;3.49;82.25;100650.09;457687;115;922913;-79
2022/11/19 03:56:04;;;;;;;9.68;9.06;;;;;;;3.51;82.29;100637.30;457583;115;922564;-79
2022/11/19 03:57:09;;;;;;;9.83;9.20;;;;;;;3.54;82.30;100631.55;457373;116;930346;-78
2022/11/19 03:58:12;;;;;;;9.33;8.72;;;;;;;3.58;82.33;100626.69;457447;116;922833;-78
2022/11/19 03:59:16;;;;;;;9.93;9.16;;;;;;;3.58;82.19;100619.45;457632;115;922458;-76
2022/11/19 04:00:19;;;;;;;9.70;9.10;;;;;;;3.59;82.25;100618.41;457592;115;922410;-77
2022/11/19 04:01:22;;;;;;;9.61;9.01;;;;;;;3.60;82.09;100612.02;457680;115;923001;-77
2022/11/19 04:02:25;;;;;;;10.34;9.63;;;;;;;3.61;82.07;100611.01;457620;116;922474;-77
2022/11/19 04:05:23;;;;;;;10.49;9.79;;;;;;;3.61;82.08;100604.77;457401;116;922559;-77
2022/11/19 04:06:26;;;;;;;10.69;10.03;;;;;;;3.57;82.17;100604.28;457619;114;922463;-77
2022/11/19 04:07:29;;;;;;;10.03;9.42;;;;;;;3.56;82.25;100607.98;457624;115;922476;-78
2022/11/19 04:08:32;;;;;;;10.57;9.87;;;;;;;3.55;82.47;100598.20;450588;117;922631;-77
2022/11/19 04:09:35;;;;;;;10.29;9.51;;;;;;;3.54;82.41;100592.97;450832;116;922524;-76
2022/11/19 04:10:38;;;;;;;10.46;9.76;;;;;;;3.53;82.54;100592.13;457604;115;923380;-75
2022/11/19 04:11:42;;;;;;;10.03;9.41;;;;;;;3.53;82.60;100592.13;457567;114;922529;-78
2022/11/19 04:12:45;;;;;;;10.32;9.62;;;;;;;3.52;82.51;100590.47;457422;115;922721;-77
2022/11/19 04:13:48;;;;;;;10.21;9.61;;;;;;;3.52;82.56;100589.63;457578;115;922552;-77
2022/11/19 04:14:51;;;;;;;10.99;10.29;;;;;;;3.50;82.55;100587.09;457633;115;922496;-78
2022/11/19 04:15:54;;;;;;;10.98;10.28;;;;;;;3.50;82.67;100588.94;457610;115;923018;-77
2022/11/19 04:16:57;;;;;;;10.37;9.70;;;;;;;3.49;82.77;100588.09;457611;114;922562;-77
2022/11/19 04:18:00;;;;;;;11.78;10.98;;;;;;;3.48;82.79;100580.17;457591;116;922786;-77
2022/11/19 04:19:03;;;;;;;10.89;10.29;;;;;;;3.48;82.94;100578.31;457609;115;922462;-78
2022/11/19 04:20:08;;;;;;;11.36;10.67;;;;;;;3.48;83.01;100582.86;457685;115;922887;-75
2022/11/19 04:21:10;;;;;;;11.64;10.94;;;;;;;3.47;82.96;100579.35;457542;114;922394;-77
2022/11/19 04:22:13;;;;;;;11.95;11.15;;;;;;;3.46;83.08;100574.97;457670;115;922451;-77
2022/11/19 04:23:36;;;;;;;11.89;11.10;;;;;;;3.46;83.06;100574.97;457611;116;922447;-77
2022/11/19 04:24:39;;;;;;;11.61;10.86;;;;;;;3.46;83.05;100576.81;457435;116;922612;-78
2022/11/19 04:25:46;;;;;;;12.14;11.34;;;;;;;3.44;83.07;100571.59;457658;116;922903;-77
2022/11/19 04:26:49;;;;;;;12.01;11.27;;;;;;;3.42;83.24;100573.59;457473;114;922599;-77
2022/11/19 04:27:53;;;;;;;12.43;11.63;;;;;;;3.43;83.31;100577.98;457687;115;922472;-76
2022/11/19 04:28:56;;;;;;;12.47;11.68;;;;;;;3.45;83.37;100577.83;457588;115;922495;-77
2022/11/19 04:29:59;;;;;;;12.42;11.63;;;;;;;3.45;83.56;100567.05;456530;115;930350;-78
2022/11/19 04:31:02;;;;;;;11.53;10.83;;;;;;;3.45;83.56;100567.05;454455;116;922559;-77
2022/11/19 04:32:05;;;;;;;11.86;11.15;;;;;;;3.45;83.48;100565.19;454378;116;922832;-77
2022/11/19 04:33:07;;;;;;;11.67;10.96;;;;;;;3.46;83.44;100561.49;451776;113;922897;-77
2022/11/19 04:34:11;;;;;;;12.07;11.27;;;;;;;3.47;83.44;100562.34;449787;117;922470;-77
2022/11/19 04:35:16;;;;;;;11.51;10.74;;;;;;;3.48;83.51;100551.36;449969;117;922584;-77
2022/11/19 04:36:18;;;;;;;12.52;11.74;;;;;;;3.48;83.54;100554.06;449777;116;922505;-77
2022/11/19 04:37:21;;;;;;;11.89;11.08;;;;;;;3.50;83.45;100560.13;449904;117;923016;-77
2022/11/19 04:38:24;;;;;;;11.85;11.04;;;;;;;3.52;83.38;100559.97;449941;118;922946;-77
2022/11/19 04:39:27;;;;;;;12.05;11.25;;;;;;;3.51;83.41;100558.28;449937;117;922901;-77
2022/11/19 04:40:30;;;;;;;11.41;10.61;;;;;;;3.51;83.35;100563.67;449982;117;922579;-77
2022/11/19 04:41:34;;;;;;;12.38;11.64;;;;;;;3.51;83.44;100556.43;449909;116;922543;-77
2022/11/19 04:42:37;;;;;;;12.12;11.31;;;;;;;3.53;83.51;100545.48;449828;117;922497;-77
2022/11/19 04:43:40;;;;;;;12.11;11.40;;;;;;;3.55;83.48;100546.98;449899;117;922763;-77
2022/11/19 04:44:43;;;;;;;11.26;10.59;;;;;;;3.57;83.50;100547.67;449865;117;922861;-78
2022/11/19 04:45:46;;;;;;;11.84;11.12;;;;;;;3.59;83.53;100540.23;449865;117;922554;-77
2022/11/19 04:46:49;;;;;;;11.06;10.28;;;;;;;3.60;83.54;100541.92;449843;116;922577;-78
2022/11/19 04:47:52;;;;;;;11.29;10.58;;;;;;;3.61;83.52;100538.22;449871;117;922660;-77
2022/11/19 04:48:55;;;;;;;10.78;10.14;;;;;;;3.63;83.53;100529.97;449767;118;922859;-78
2022/11/19 04:49:58;;;;;;;10.69;10.04;;;;;;;3.63;83.43;100525.42;449814;117;922475;-77
2022/11/19 04:51:01;;;;;;;11.94;10.79;;;;;;;3.65;83.43;100517.98;449851;116;922542;-77
2022/11/19 04:52:04;;;;;;;11.22;10.52;;;;;;;3.66;83.51;100519.67;449866;117;922526;-78
2022/11/19 04:53:07;;;;;;;11.40;10.70;;;;;;;3.67;83.39;100521.36;449906;117;922584;-77
2022/11/19 04:54:11;;;;;;;10.49;9.86;;;;;;;3.69;83.33;100513.92;449832;117;922791;-78
2022/11/19 04:55:15;;;;;;;10.05;9.38;;;;;;;3.69;83.36;100510.41;449751;117;922926;-78
2022/11/19 04:56:18;;;;;;;11.21;10.49;;;;;;;3.71;83.31;100511.06;450305;114;922017;-78
2022/11/19 04:57:21;;;;;;;10.72;9.99;;;;;;;3.72;83.34;100513.59;451118;114;922043;-78
2022/11/19 04:58:23;;;;;;;9.67;9.08;;;;;;;3.72;83.28;100512.75;451160;114;922175;-76
2022/11/19 04:59:27;;;;;;;10.56;9.85;;;;;;;3.73;83.20;100509.89;451079;114;921816;-79
2022/11/19 05:00:30;;;;;;;10.51;9.64;;;;;;;3.72;83.18;100508.20;451118;114;922021;-78
2022/11/19 05:01:33;;;;;;;10.82;10.13;;;;;;;3.74;83.14;100511.58;451111;114;921922;-77
2022/11/19 05:02:35;;;;;;;9.94;9.29;;;;;;;3.72;83.20;100502.80;451102;114;922170;-77
2022/11/19 05:03:38;;;;;;;10.18;9.53;;;;;;;3.74;83.16;100510.73;451165;114;922007;-78
2022/11/19 05:04:41;;;;;;;9.99;9.36;;;;;;;3.73;83.18;100509.89;451029;118;922583;-77
2022/11/19 05:05:44;;;;;;;9.93;9.33;;;;;;;3.74;83.24;100500.79;451053;114;922632;-78
2022/11/19 05:06:47;;;;;;;9.94;9.34;;;;;;;3.75;83.23;100497.05;451008;116;922055;-78
2022/11/19 05:07:50;;;;;;;9.87;9.21;;;;;;;3.74;83.24;100500.79;451034;118;922448;-78
2022/11/19 05:08:53;;;;;;;9.99;9.29;;;;;;;3.76;83.16;100496.05;451076;114;922067;-78
2022/11/19 05:09:56;;;;;;;9.58;8.99;;;;;;;3.77;83.11;100503.12;450982;117;922048;-77
2022/11/19 05:10:59;;;;;;;8.97;8.47;;;;;;;3.78;83.13;100504.81;451021;118;921866;-76
2022/11/19 05:12:02;;;;;;;9.44;8.84;;;;;;;3.80;83.04;100498.41;451046;117;922565;-77
2022/11/19 05:13:04;;;;;;;9.57;8.90;;;;;;;3.79;83.10;100492.17;451075;114;922202;-78
2022/11/19 05:14:07;;;;;;;9.61;9.01;;;;;;;3.80;83.06;100496.56;451015;117;922143;-77
2022/11/19 05:15:10;;;;;;;9.04;8.44;;;;;;;3.82;83.08;100499.91;450981;117;922495;-78
2022/11/19 05:16:13;;;;;;;8.88;8.28;;;;;;;3.84;83.10;100502.44;450993;116;922509;-78
2022/11/19 05:17:16;;;;;;;8.02;7.48;;;;;;;3.84;83.00;100497.89;450604;117;921925;-78
2022/11/19 05:18:19;;;;;;;8.55;8.05;;;;;;;3.86;83.04;100503.12;450617;117;922610;-78
2022/11/19 05:19:22;;;;;;;8.54;8.04;;;;;;;3.87;83.07;100496.68;450593;117;922276;-78
2022/11/19 05:20:25;;;;;;;8.28;7.78;;;;;;;3.88;83.02;100491.13;450561;117;922320;-78
2022/11/19 05:21:28;;;;;;;8.43;7.92;;;;;;;3.89;83.03;100489.27;450556;116;922159;-78
2022/11/19 05:22:31;;;;;;;8.22;7.70;;;;;;;3.90;82.94;100489.11;450472;117;922730;-74
2022/11/19 05:23:34;;;;;;;8.31;7.81;;;;;;;3.90;82.94;100490.95;449737;117;922543;-75
2022/11/19 05:24:37;;;;;;;8.53;7.92;;;;;;;3.91;83.01;100495.34;449628;118;922504;-77
2022/11/19 05:25:40;;;;;;;8.46;7.86;;;;;;;3.91;82.98;100488.09;449629;117;922864;-76
2022/11/19 05:26:43;;;;;;;7.21;6.81;;;;;;;3.91;82.90;100480.00;457636;114;922525;-78
2022/11/19 05:27:46;;;;;;;7.89;7.41;;;;;;;3.92;82.97;100478.96;457796;115;922553;-78
2022/11/19 05:28:49;;;;;;;8.03;7.53;;;;;;;3.93;82.90;100482.50;457797;115;922314;-78
2022/11/19 05:29:51;;;;;;;7.89;7.39;;;;;;;3.94;82.89;100476.94;457742;115;922961;-78
2022/11/19 05:30:54;;;;;;;7.55;7.05;;;;;;;3.94;82.87;100466.16;457740;115;922432;-78
2022/11/19 05:31:57;;;;;;;7.89;7.29;;;;;;;3.95;82.98;100473.23;457753;115;922447;-77
2022/11/19 05:33:00;;;;;;;7.42;6.99;;;;;;;3.97;82.89;100470.38;451183;114;922672;-77
2022/11/19 05:34:03;;;;;;;7.31;6.78;;;;;;;3.97;82.94;100468.48;452702;117;922476;-77
2022/11/19 05:35:07;;;;;;;7.58;7.08;;;;;;;3.99;82.87;100469.16;453608;117;923043;-76
2022/11/19 05:36:10;;;;;;;7.46;7.00;;;;;;;4.00;82.90;100456.52;454688;114;922392;-76
2022/11/19 05:37:13;;;;;;;6.71;6.31;;;;;;;4.01;82.82;100456.36;454926;116;922532;-78
2022/11/19 05:38:16;;;;;;;7.09;6.59;;;;;;;4.01;82.73;100467.14;454940;116;922593;-77
2022/11/19 05:39:19;;;;;;;7.20;6.79;;;;;;;4.02;82.69;100454.50;454978;116;922535;-78
2022/11/19 05:40:24;;;;;;;7.41;6.92;;;;;;;4.02;82.71;100466.13;454819;116;923349;-77
2022/11/19 05:41:27;;;;;;;6.96;6.49;;;;;;;4.04;82.80;100464.08;454991;116;922765;-77
2022/11/19 05:42:30;;;;;;;6.84;6.44;;;;;;;4.06;82.83;100450.42;454873;116;922919;-77
2022/11/19 05:43:33;;;;;;;7.14;6.64;;;;;;;4.08;82.75;100440.31;454888;116;922749;-78
2022/11/19 05:44:36;;;;;;;6.85;6.35;;;;;;;4.08;82.68;100448.41;454879;116;922444;-78
2022/11/19 05:45:38;;;;;;;6.94;6.53;;;;;;;4.08;82.61;100460.01;454859;116;922459;-80
2022/11/19 05:46:41;;;;;;;6.89;6.42;;;;;;;4.06;82.43;100451.27;454857;114;922519;-79
2022/11/19 05:47:44;;;;;;;7.26;6.78;;;;;;;4.08;82.51;100413.33;454881;116;922758;-79
2022/11/19 05:48:49;;;;;;;7.16;6.74;;;;;;;4.06;82.32;100439.64;454610;116;922501;-79
2022/11/19 05:49:52;;;;;;;6.46;6.03;;;;;;;4.05;82.32;100424.45;454831;116;922977;-79
2022/11/19 05:50:55;;;;;;;6.37;5.87;;;;;;;4.04;82.25;100430.86;454873;116;922631;-78
2022/11/19 05:51:58;;;;;;;6.46;6.06;;;;;;;4.03;82.25;100439.97;454825;114;922485;-79
2022/11/19 05:53:01;;;;;;;6.46;6.06;;;;;;;4.04;82.30;100429.02;454843;116;923017;-79
2022/11/19 05:54:04;;;;;;;6.16;5.76;;;;;;;4.05;82.29;100419.06;454817;116;922999;-78
2022/11/19 05:55:07;;;;;;;5.98;5.67;;;;;;;4.04;82.32;100420.92;454821;116;922556;-80
2022/11/19 05:56:10;;;;;;;6.01;5.62;;;;;;;4.05;82.36;100417.20;454840;114;922585;-79
2022/11/19 05:57:13;;;;;;;5.51;5.11;;;;;;;4.05;82.35;100419.06;454845;116;922589;-79
2022/11/19 05:58:16;;;;;;;5.84;5.44;;;;;;;4.05;82.37;100419.06;454843;116;922504;-78
2022/11/19 05:59:19;;;;;;;5.70;5.28;;;;;;;4.05;82.38;100417.20;454822;116;923079;-79
2022/11/19 06:00:22;;;;;;;6.41;6.01;;;;;;;4.04;82.43;100418.22;454732;116;922681;-78
2022/11/19 06:01:27;;;;;;;6.08;5.75;;;;;;;4.06;82.54;100412.66;454777;114;930534;-79
2022/11/19 06:02:30;;;;;;;6.30;5.90;;;;;;;4.06;82.41;100408.11;454689;116;922448;-79
2022/11/19 06:03:33;;;;;;;6.29;5.89;;;;;;;4.07;82.48;100392.77;454750;116;930560;-79
2022/11/19 06:04:36;;;;;;;6.21;5.81;;;;;;;4.08;82.54;100399.84;454817;116;922954;-79
2022/11/19 06:05:39;;;;;;;6.36;5.96;;;;;;;4.08;82.48;100397.14;454871;116;922589;-80
2022/11/19 06:06:43;;;;;;;5.92;5.53;;;;;;;4.09;82.62;100417.69;454723;114;923595;-80
2022/11/19 06:07:46;;;;;;;6.80;6.29;;;;;;;4.10;82.60;100400.48;454743;116;930514;-78
2022/11/19 06:08:49;;;;;;;5.28;4.98;;;;;;;4.10;82.51;100406.72;454841;116;922383;-79
2022/11/19 06:09:52;;;;;;;6.47;5.98;;;;;;;4.10;82.63;100403.19;454831;116;922820;-80
2022/11/19 06:10:55;;;;;;;5.99;5.59;;;;;;;4.11;82.65;100415.66;454838;116;922488;-79
2022/11/19 06:11:58;;;;;;;6.15;5.78;;;;;;;4.10;82.55;100409.42;454825;114;922342;-75
2022/11/19 06:13:01;;;;;;;7.08;6.58;;;;;;;4.11;82.65;100408.41;454810;116;922480;-78
2022/11/19 06:14:04;;;;;;;6.31;5.86;;;;;;;4.12;82.69;100396.61;454823;116;922387;-78
2022/11/19 06:15:08;;;;;;;6.94;6.46;;;;;;;4.14;82.70;100388.31;454861;116;922685;-77
2022/11/19 06:16:11;;;;;;;6.86;6.35;;;;;;;4.13;82.74;100390.20;454761;114;922553;-80
2022/11/19 06:17:14;;;;;;;6.65;6.22;;;;;;;4.14;82.85;100372.96;454840;116;922472;-78
2022/11/19 06:18:17;;;;;;;7.42;6.92;;;;;;;4.15;82.89;100336.03;454845;116;922617;-76
2022/11/19 06:19:20;;;;;;;7.05;6.56;;;;;;;4.15;82.99;100357.62;454843;116;922524;-77
2022/11/19 06:20:23;;;;;;;6.78;6.29;;;;;;;4.16;83.16;100368.24;454722;116;922466;-78
2022/11/19 06:21:26;;;;;;;5.82;5.42;;;;;;;4.16;83.26;100337.72;454754;114;930482;-78
2022/11/19 06:22:29;;;;;;;6.46;6.04;;;;;;;4.14;83.20;100354.08;454851;116;922510;-78
2022/11/19 06:23:32;;;;;;;6.73;6.23;;;;;;;4.13;83.34;100352.42;454839;116;922964;-77
2022/11/19 06:24:35;;;;;;;6.46;6.01;;;;;;;4.13;83.51;100327.30;454837;116;922506;-77
2022/11/19 06:25:38;;;;;;;6.99;6.44;;;;;;;4.13;83.72;100344.33;454816;116;922599;-77
2022/11/19 06:26:41;;;;;;;6.78;6.28;;;;;;;4.13;83.78;100343.48;454819;114;922492;-77
2022/11/19 06:27:44;;;;;;;6.93;6.45;;;;;;;4.12;83.77;100312.13;454749;116;922401;-79
2022/11/19 06:28:47;;;;;;;7.04;6.52;;;;;;;4.11;83.85;100323.92;454752;116;930494;-77
2022/11/19 06:29:50;;;;;;;7.38;6.88;;;;;;;4.11;83.97;100332.02;453263;116;922588;-78
2022/11/19 06:30:55;;;;;;;6.52;6.12;;;;;;;4.11;84.08;100318.53;446141;119;922552;-77
2022/11/19 06:31:58;;;;;;;6.96;6.44;;;;;;;4.11;84.18;100329.33;446734;116;922429;-77
2022/11/19 06:33:01;;;;;;;6.41;6.01;;;;;;;4.10;84.29;100328.48;454179;114;922506;-77
2022/11/19 06:34:04;;;;;;;7.67;7.03;;;;;;;4.11;84.32;100327.47;462876;114;922367;-79
2022/11/19 06:35:08;;;;;;;7.03;6.53;;;;;;;4.11;84.48;100324.77;454764;116;923118;-79
2022/11/19 06:36:11;;;;;;;7.47;6.97;;;;;;;4.12;84.48;100336.41;455687;114;922576;-78
2022/11/19 06:37:13;;;;;;;6.41;6.01;;;;;;;4.11;84.51;100318.53;464779;114;930370;-79
2022/11/19 06:38:16;;;;;;;6.62;6.16;;;;;;;4.10;84.65;100328.48;464873;114;922545;-77
2022/11/19 06:39:19;;;;;;;6.79;6.29;;;;;;;4.11;84.72;100321.23;464862;114;922844;-77
2022/11/19 06:40:23;;;;;;;6.16;5.76;;;;;;;4.12;84.81;100333.70;464757;114;922534;-79
2022/11/19 06:41:26;;;;;;;6.84;6.36;;;;;;;4.12;84.78;100329.16;464699;114;930382;-78
2022/11/19 06:42:38;;;;;;;6.58;6.15;;;;;;;4.12;84.81;100323.76;464819;114;922492;-78
2022/11/19 06:43:33;;;;;;;6.56;6.16;;;;;;;4.11;84.92;100327.47;461858;114;922505;-80
2022/11/19 06:44:36;;;;;;;7.00;6.60;;;;;;;4.11;85.00;100332.86;464822;114;922457;-78
2022/11/19 06:45:39;;;;;;;7.42;6.94;;;;;;;4.13;84.96;100327.30;464805;114;922434;-77
2022/11/19 06:46:42;;;;;;;6.94;6.46;;;;;;;4.15;85.09;100325.23;464816;114;922549;-78
2022/11/19 06:47:47;;;;;;;7.49;6.99;;;;;;;4.15;85.09;100323.38;464814;114;922542;-78
2022/11/19 06:48:50;;;;;;;7.21;6.61;;;;;;;4.17;85.09;100328.61;464622;114;922418;-77
2022/11/19 06:49:53;;;;;;;7.54;7.06;;;;;;;4.17;85.09;100329.45;464789;114;923198;-79
2022/11/19 06:50:56;;;;;;;6.96;6.51;;;;;;;4.18;85.15;100322.20;464794;114;922462;-77
2022/11/19 06:51:59;;;;;;;7.06;6.55;;;;;;;4.20;85.15;100312.89;464743;114;922558;-79
2022/11/19 06:53:02;;;;;;;6.89;6.49;;;;;;;4.21;85.32;100313.73;464812;114;922494;-78
2022/11/19 06:54:05;;;;;;;6.98;6.48;;;;;;;4.23;85.25;100324.35;464853;114;922591;-78
2022/11/19 06:55:09;;;;;;;7.20;6.71;;;;;;;4.24;85.33;100312.55;464819;114;922529;-80
2022/11/19 06:56:12;;;;;;;6.89;6.49;;;;;;;4.25;85.45;100317.73;464714;114;923023;-77
2022/11/19 06:57:15;;;;;;;7.47;6.99;;;;;;;4.28;85.39;100319.25;464816;114;922530;-77
2022/11/19 06:58:18;;;;;;;7.07;6.57;;;;;;;4.29;85.40;100320.94;459975;114;922914;-78
2022/11/19 06:59:21;;;;;;;6.81;6.31;;;;;;;4.30;85.39;100323.43;456680;115;922504;-76
2022/11/19 07:00:24;;;;;;;7.72;7.17;;;;;;;4.32;85.42;100312.46;456576;115;922969;-79
2022/11/19 07:01:27;;;;;;;7.22;6.72;;;;;;;4.33;85.39;100323.09;456697;116;923219;-77
2022/11/19 07:02:30;;;;;;;7.10;6.60;;;;;;;4.32;85.53;100299.81;456706;115;922873;-77
2022/11/19 07:03:33;;;;;;;7.82;7.32;;;;;;;4.34;85.55;100308.58;456673;115;922479;-77
2022/11/19 07:04:36;;;;;;;7.36;6.86;;;;;;;4.35;85.65;100304.02;456611;115;922640;-77
2022/11/19 07:05:39;;;;;;;7.11;6.61;;;;;;;4.36;85.80;100297.58;456658;115;922511;-79
2022/11/19 07:06:42;;;;;;;8.26;7.66;;;;;;;4.37;85.90;100304.66;456683;114;922651;-75
2022/11/19 07:07:45;;;;;;;8.68;7.97;;;;;;;4.38;85.90;100280.19;456698;116;922484;-78
2022/11/19 07:08:48;;;;;;;8.71;7.81;;;;;;;4.38;85.91;100276.66;456693;116;922474;-79
2022/11/19 07:09:51;;;;;;;7.67;7.14;;;;;;;4.39;86.04;100272.94;456670;115;922437;-78
2022/11/19 07:10:55;;;;;;;8.18;7.58;;;;;;;4.40;86.10;100280.02;456685;115;922789;-78
2022/11/19 07:11:58;;;;;;;8.03;7.52;;;;;;;4.39;86.11;100271.08;456607;114;922513;-78
2022/11/19 07:13:01;;;;;;;8.24;7.64;;;;;;;4.41;86.16;100281.70;456645;115;923067;-79
2022/11/19 07:14:04;;;;;;;7.20;6.72;;;;;;;4.40;86.29;100277.32;456719;116;922531;-77
2022/11/19 07:15:08;;;;;;;7.03;6.61;;;;;;;4.41;86.35;100282.52;456727;115;922977;-78
2022/11/19 07:16:11;;;;;;;7.56;7.06;;;;;;;4.42;86.51;100275.26;456613;114;922955;-79
2022/11/19 07:17:14;;;;;;;7.08;6.65;;;;;;;4.44;86.57;100275.92;456638;115;922363;-78
2022/11/19 07:18:17;;;;;;;6.87;6.44;;;;;;;4.44;86.66;100265.13;447721;118;922634;-78
2022/11/19 07:19:20;;;;;;;6.83;6.34;;;;;;;4.46;86.76;100261.23;442063;120;922500;-80
2022/11/19 07:20:23;;;;;;;7.75;7.25;;;;;;;4.48;86.73;100256.47;441923;120;922862;-79
2022/11/19 07:21:27;;;;;;;7.17;6.67;;;;;;;4.49;86.58;100260.02;442042;118;922583;-77
2022/11/19 07:22:31;;;;;;;6.87;6.37;;;;;;;4.47;86.56;100254.80;442007;120;922573;-79
2022/11/19 07:23:33;;;;;;;7.28;6.78;;;;;;;4.47;86.50;100260.19;442061;120;922514;-82
2022/11/19 07:24:37;;;;;;;7.15;6.61;;;;;;;4.47;86.65;100256.65;442041;120;922464;-80
2022/11/19 07:25:40;;;;;;;7.80;7.29;;;;;;;4.47;86.73;100252.09;442025;120;922623;-79
2022/11/19 07:26:43;;;;;;;6.97;6.51;;;;;;;4.49;86.77;100263.56;442041;120;922569;-78
2022/11/19 07:27:46;;;;;;;7.04;6.57;;;;;;;4.51;86.83;100266.08;442032;120;922804;-80
2022/11/19 07:28:49;;;;;;;6.90;6.41;;;;;;;4.51;86.81;100260.69;442053;120;922469;-80
2022/11/19 07:29:52;;;;;;;6.83;6.41;;;;;;;4.52;86.79;100252.38;441485;120;922588;-77
2022/11/19 07:30:55;;;;;;;7.21;6.71;;;;;;;4.54;86.92;100238.70;445660;119;922901;-79
2022/11/19 07:31:58;;;;;;;7.33;6.74;;;;;;;4.56;86.91;100231.27;437850;121;923007;-79
2022/11/19 07:33:01;;;;;;;6.47;6.06;;;;;;;4.57;86.99;100217.59;432633;118;922527;-80
2022/11/19 07:34:09;;;;;;;7.67;6.99;;;;;;;4.58;86.91;100224.64;434710;122;922774;-78
2022/11/19 07:35:12;;;;;;;7.37;6.87;;;;;;;4.59;87.03;100220.93;434547;122;922660;-79
2022/11/19 07:36:15;;;;;;;6.79;6.32;;;;;;;4.60;87.03;100211.81;434743;120;922500;-79
2022/11/19 07:37:20;;;;;;;7.51;7.01;;;;;;;4.63;87.08;100204.38;436043;121;922984;-80
2022/11/19 07:38:23;;;;;;;7.58;6.93;;;;;;;4.65;87.10;100215.81;448406;117;922587;-79
2022/11/19 07:39:26;;;;;;;6.29;5.87;;;;;;;4.63;86.99;100216.02;447968;118;922529;-79
2022/11/19 07:40:30;;;;;;;6.67;6.14;;;;;;;4.64;87.01;100220.37;447901;118;922554;-79
2022/11/19 07:42:54;;;;;;;7.02;6.47;;;;;;;4.63;86.98;100216.83;447828;118;922689;-79
2022/11/19 07:43:57;;;;;;;6.68;6.26;;;;;;;4.64;86.93;100231.17;448065;118;922520;-80
2022/11/19 07:45:00;;;;;;;6.58;6.08;;;;;;;4.63;87.02;100236.78;447345;118;922762;-79
2022/11/19 07:46:05;;;;;;;6.36;5.94;;;;;;;4.63;87.10;100234.92;447397;118;922652;-77
2022/11/19 07:47:08;;;;;;;6.26;5.86;;;;;;;4.61;87.11;100248.59;447849;118;922378;-80
2022/11/19 07:48:11;;;;;;;7.04;6.47;;;;;;;4.63;87.06;100251.92;447874;118;930889;-80
2022/11/19 07:49:14;;;;;;;6.22;5.83;;;;;;;4.64;87.12;100255.47;447975;118;922479;-79
2022/11/19 07:50:17;;;;;;;6.06;5.63;;;;;;;4.65;86.95;100250.91;448017;118;922925;-78
2022/11/19 07:51:21;;;;;;;6.85;6.35;;;;;;;4.65;86.97;100240.11;447971;118;922537;-79
2022/11/19 07:52:24;;;;;;;6.35;5.94;;;;;;;4.65;87.04;100232.84;447936;118;922500;-79
2022/11/19 07:53:27;;;;;;;6.28;5.87;;;;;;;4.67;87.03;100219.17;447967;118;930470;-78
2022/11/19 07:54:30;;;;;;;6.62;6.08;;;;;;;4.68;87.01;100232.50;448040;118;922523;-79
2022/11/19 07:55:33;;;;;;;5.68;5.18;;;;;;;4.68;87.03;100216.30;448012;118;922492;-79
2022/11/19 07:56:36;;;;;;;6.56;6.06;;;;;;;4.67;87.09;100214.61;448008;118;922515;-78
2022/11/19 07:57:39;;;;;;;6.24;5.84;;;;;;;4.67;87.08;100208.38;448048;118;922535;-79
2022/11/19 07:58:42;;;;;;;5.58;5.15;;;;;;;4.69;87.29;100195.50;448029;118;922615;-80
2022/11/19 07:59:45;;;;;;;5.89;5.37;;;;;;;4.70;87.35;100183.68;448022;118;922483;-82
2022/11/19 08:00:48;;;;;;;5.36;4.96;;;;;;;4.72;87.48;100181.64;448010;118;923070;-80
2022/11/19 08:01:52;;;;;;;5.03;4.70;;;;;;;4.72;87.59;100177.08;447976;118;922513;-79
2022/11/19 08:02:55;;;;;;;5.12;4.72;;;;;;;4.75;87.65;100176.70;447994;118;922572;-80
2022/11/19 08:03:59;;;;;;;5.28;4.87;;;;;;;4.78;87.67;100153.89;447999;118;922549;-80
2022/11/19 08:05:01;;;;;;;5.20;4.80;;;;;;;4.80;87.70;100141.02;447911;118;922561;-80
2022/11/19 08:06:05;;;;;;;4.89;4.49;;;;;;;4.80;87.71;100149.12;447933;118;930557;-80
2022/11/19 08:07:08;;;;;;;6.33;5.64;;;;;;;4.79;87.66;100148.31;447902;118;922556;-80
2022/11/19 08:08:11;;;;;;;6.08;4.91;;;;;;;4.80;87.75;100155.36;447930;118;930499;-79
2022/11/19 08:09:14;;;;;;;4.50;4.20;;;;;;;4.80;87.69;100154.52;447986;118;922548;-79
2022/11/19 08:10:17;;;;;;;4.65;4.30;;;;;;;4.80;87.78;100160.77;447986;118;922608;-80
2022/11/19 08:11:20;;;;;;;4.49;4.14;;;;;;;4.82;87.67;100150.62;447971;118;922499;-78
2022/11/19 08:12:23;;;;;;;4.22;3.92;;;;;;;4.82;87.67;100150.62;447985;118;922801;-81
2022/11/19 08:13:26;;;;;;;4.08;3.79;;;;;;;4.84;87.89;100145.87;447991;118;922580;-78
2022/11/19 08:14:29;;;;;;;4.46;4.16;;;;;;;4.85;87.86;100149.42;447156;118;923057;-78
2022/11/19 08:19:09;;;;;;;4.30;3.98;;;;;;;4.87;88.00;100160.86;447787;118;923058;-80
2022/11/19 08:20:12;;;;;;;4.26;3.96;;;;;;;4.85;88.15;100158.33;447835;118;922626;-79
2022/11/19 08:21:15;;;;;;;3.80;3.54;;;;;;;4.86;88.43;100151.07;448013;118;923259;-79
2022/11/19 08:22:18;;;;;;;3.18;2.98;;;;;;;4.86;88.43;100151.07;448060;118;922577;-79
2022/11/19 08:23:24;;;;;;;3.05;2.85;;;;;;;4.87;88.34;100139.25;448050;118;922620;-79
2022/11/19 08:24:27;;;;;;;2.84;2.65;;;;;;;4.88;88.35;100151.73;447871;118;922461;-79
2022/11/19 08:25:30;;;;;;;3.42;3.22;;;;;;;4.89;88.37;100156.11;448030;118;922448;-80
2022/11/19 08:26:33;;;;;;;3.98;3.69;;;;;;;4.90;88.42;100145.13;448024;118;922737;-81
2022/11/19 08:27:36;;;;;;;3.77;3.47;;;;;;;4.91;88.56;100137.83;448000;118;923035;-78
2022/11/19 08:28:39;;;;;;;4.11;3.81;;;;;;;4.93;88.58;100142.03;448037;118;922694;-78
2022/11/19 08:29:41;;;;;;;3.69;3.46;;;;;;;4.92;88.55;100145.75;448473;116;922598;-79
2022/11/19 08:30:45;;;;;;;3.91;3.62;;;;;;;4.95;88.47;100144.55;446769;118;922923;-79
2022/11/19 08:31:50;;;;;;;3.24;3.04;;;;;;;4.95;88.47;100131.89;446746;118;922554;-79
2022/11/19 08:32:52;;;;;;;3.18;2.92;;;;;;;4.97;88.48;100134.38;436607;121;922536;-80
2022/11/19 08:33:56;;;;;;;3.84;3.55;;;;;;;4.99;88.49;100127.77;439380;120;922510;-80